Plano's Hourly Summary for Sunday, April 16, 2017
Hour Temp
(f)
RH
(%)
Solar Rad.
(MJ/m2)
Rainfall
(in)
Wind
(mph)
4/16/2017 12:00 AM 71 65 0 0 2.77
4/16/2017 1:00 AM 71 66 0 0 3.79
4/16/2017 2:00 AM 70 67 0 0 3.88
4/16/2017 3:00 AM 70 68 0 0 4.17
4/16/2017 4:00 AM 68 71 0 0 4.03
4/16/2017 5:00 AM 67 75 0 0 3.72
4/16/2017 6:00 AM 66 80 0 0 2.54
4/16/2017 7:00 AM 65 85 0 0 2.6
4/16/2017 8:00 AM 65 87 0.09 0 3.11
4/16/2017 9:00 AM 67 83 0.26 0 3.69
4/16/2017 10:00 AM 69 78 0.46 0 3.71
4/16/2017 11:00 AM 71 70 0.77 0 3.36
4/16/2017 12:00 PM 72 68 0.93 0 3.37
4/16/2017 1:00 PM 75 60 1.23 0 3.38
4/16/2017 2:00 PM 75 62 1.07 0 3.54
4/16/2017 3:00 PM 76 59 1.29 0 3.36
4/16/2017 4:00 PM 77 56 1.15 0 3.82
4/16/2017 5:00 PM 79 54 1.85 0 5
4/16/2017 6:00 PM 79 53 1.34 0 3.95
4/16/2017 7:00 PM 77 57 0.25 0 2.26
4/16/2017 8:00 PM 76 60 0.05 0 1.68
4/16/2017 9:00 PM 75 62 0 0 0.83
4/16/2017 10:00 PM 73 67 0 0 0.67
4/16/2017 11:00 PM 71 71 0 0 0.04
Data Summary 71 67 10.74 0.00 3.05